| time (UTC) | temp F | wind direction | speed MPH | gust MPH | rain 1hr in | rain 24hr in | rain mn in | humidity % | barometer mb |
| 20260510081018 | 66 | 225 | 12.0 | 0.0 | 0.00 | 0.00 | 0.00 | 1012.2 | |
| 20260510080004 | 72 | 225 | 20.0 | 0.0 | 0.00 | 0.00 | 0.00 | 1012.1 | |
| 20260510074950 | 71 | 225 | 17.0 | 0.0 | 0.00 | 0.00 | 0.00 | 1011.9 | |
| 20260510073937 | 70 | 225 | 13.0 | 0.0 | 0.00 | 0.00 | 0.00 | 1011.9 | |
| 20260510072923 | 69 | 225 | 15.0 | 0.0 | 0.00 | 0.00 | 0.00 | 1011.9 | |
| 20260510071909 | 68 | 225 | 15.0 | 0.0 | 0.00 | 0.00 | 0.00 | 1011.7 | |
| 20260510070856 | 67 | 180 | 12.0 | 0.0 | 0.00 | 0.00 | 0.00 | 1011.6 | |
| 20260510065842 | 66 | 225 | 12.0 | 0.0 | 0.00 | 0.00 | 0.00 | 1011.5 | |
| 20260510064829 | 64 | 225 | 17.0 | 0.0 | 0.00 | 0.00 | 0.00 | 1011.5 | |
| 20260510063815 | 63 | 225 | 10.0 | 0.0 | 0.00 | 0.00 | 0.00 | 1011.5 | |
| 20260510062801 | 62 | 225 | 21.0 | 0.0 | 0.00 | 0.00 | 0.00 | 1011.4 | |
| 20260510061748 | 60 | 225 | 23.0 | 0.0 | 0.00 | 0.00 | 0.00 | 1011.2 | |
| 20260510060734 | 60 | 180 | 13.0 | 0.0 | 0.00 | 0.00 | 0.00 | 1011.3 | |
| 20260510055720 | 57 | 225 | 12.0 | 0.0 | 0.00 | 0.00 | 0.00 | 1011.2 | |
| 20260510054707 | 57 | 225 | 12.0 | 0.0 | 0.00 | 0.00 | 0.00 | 1011.2 | |
| 20260510053653 | 53 | 225 | 15.0 | 0.0 | 0.00 | 0.00 | 0.00 | 1011.1 | |
| 20260510052639 | 53 | 225 | 16.0 | 0.0 | 0.00 | 0.00 | 0.00 | 1010.9 | |
| 20260510051626 | 53 | 225 | 22.0 | 0.0 | 0.00 | 0.00 | 0.00 | 1010.8 | |
| 20260510050612 | 53 | 225 | 14.0 | 0.0 | 0.00 | 0.00 | 0.00 | 1011.1 | |
| 20260510045559 | 53 | 225 | 17.0 | 0.0 | 0.00 | 0.00 | 0.00 | 1011.1 | |
| 20260510044520 | 53 | 225 | 20.0 | 0.0 | 0.00 | 0.00 | 0.00 | 1011.1 | |
| 20260510043506 | 54 | 225 | 19.0 | 0.0 | 0.00 | 0.00 | 0.00 | 1011.1 | |
| 20260510042453 | 54 | 225 | 21.0 | 0.0 | 0.00 | 0.00 | 0.00 | 1011.2 | |
| 20260510041439 | 55 | 225 | 14.0 | 0.0 | 0.00 | 0.00 | 0.00 | 1011.4 | |
| 20260510040426 | 53 | 225 | 22.0 | 0.0 | 0.00 | 0.00 | 0.00 | 1010.9 | |
| 20260510033726 | 55 | 225 | 16.0 | 0.0 | 0.00 | 0.00 | 0.00 | 1010.9 | |
| 20260510032712 | 55 | 270 | 17.0 | 0.0 | 0.00 | 0.00 | 0.00 | 1011.1 | |
| 20260510031659 | 56 | 225 | 18.0 | 0.0 | 0.00 | 0.00 | 0.00 | 1011.2 | |
| 20260510030645 | 56 | 180 | 15.0 | 0.0 | 0.00 | 0.00 | 0.00 | 1011.3 | |
| 20260510025631 | 56 | 225 | 23.0 | 0.0 | 0.00 | 0.00 | 0.00 | 1011.3 | |
| 20260510024618 | 55 | 225 | 24.0 | 0.0 | 0.00 | 0.00 | 0.00 | 1011.2 | |
| 20260510023604 | 55 | 180 | 32.0 | 0.0 | 0.00 | 0.00 | 0.00 | 1011.2 | |
| 20260510022550 | 55 | 225 | 20.0 | 0.0 | 0.00 | 0.00 | 0.00 | 1011.3 | |
| 20260510021537 | 55 | 225 | 15.0 | 0.0 | 0.00 | 0.00 | 0.00 | 1011.4 | |
| 20260510020523 | 55 | 225 | 22.0 | 0.0 | 0.00 | 0.00 | 0.00 | 1011.2 | |
| 20260510015510 | 55 | 225 | 22.0 | 0.0 | 0.00 | 0.00 | 0.00 | 1011.2 | |
| 20260510014456 | 55 | 225 | 24.0 | 0.0 | 0.00 | 0.00 | 0.00 | 1011.2 | |
| 20260510013442 | 55 | 225 | 18.0 | 0.0 | 0.00 | 0.00 | 0.00 | 1011.2 | |
| 20260510012429 | 55 | 225 | 28.0 | 0.0 | 0.00 | 0.00 | 0.00 | 1011.1 | |
| 20260510011415 | 55 | 225 | 20.0 | 0.0 | 0.00 | 0.00 | 0.00 | 1011.3 | |
| 20260510010401 | 55 | 180 | 18.0 | 0.0 | 0.00 | 0.00 | 0.00 | 1011.4 | |
| 20260510005348 | 54 | 225 | 10.0 | 0.0 | 0.00 | 0.00 | 0.00 | 1011.6 | |
| 20260510004334 | 55 | 225 | 15.0 | 0.0 | 0.00 | 0.00 | 0.00 | 1011.7 | |
| 20260510003320 | 55 | 225 | 22.0 | 0.0 | 0.00 | 0.00 | 0.00 | 1011.6 | |
| 20260510002307 | 55 | 225 | 21.0 | 0.0 | 0.00 | 0.00 | 0.00 | 1011.6 | |
| 20260510001253 | 55 | 225 | 17.0 | 0.0 | 0.00 | 0.00 | 0.00 | 1011.5 | |
| 20260510000241 | 55 | 225 | 19.0 | 0.0 | 0.00 | 0.00 | 0.00 | 1011.5 | |
| 20260509235226 | 55 | 225 | 16.0 | 0.0 | 0.00 | 0.00 | 0.00 | 1011.5 | |
| 20260509234212 | 56 | 225 | 22.0 | 0.0 | 0.00 | 0.00 | 0.00 | 1011.3 | |
| 20260509233159 | 55 | 225 | 21.0 | 0.0 | 0.00 | 0.00 | 0.00 | 1011.3 | |
| 20260509232145 | 55 | 180 | 18.0 | 0.0 | 0.00 | 0.00 | 0.00 | 1011.5 | |
| 20260509231132 | 55 | 225 | 14.0 | 0.0 | 0.00 | 0.00 | 0.00 | 1011.9 | |
| 20260509230118 | 55 | 225 | 18.0 | 0.0 | 0.00 | 0.00 | 0.00 | 1011.9 | |
| 20260509225104 | 55 | 225 | 11.0 | 0.0 | 0.00 | 0.00 | 0.00 | 1012.1 | |
| 20260509224051 | 56 | 180 | 16.0 | 0.0 | 0.00 | 0.00 | 0.00 | 1012.1 | |
| 20260509222925 | 56 | 180 | 13.0 | 0.0 | 0.00 | 0.00 | 0.00 | 1012.2 | |
| 20260509221911 | 56 | 180 | 20.0 | 0.0 | 0.00 | 0.00 | 0.00 | 1012.1 | |
| 20260509220858 | 57 | 180 | 20.0 | 0.0 | 0.00 | 0.00 | 0.00 | 1012.2 | |
| 20260509215844 | 57 | 180 | 20.0 | 0.0 | 0.00 | 0.00 | 0.00 | 1012.1 | |
| 20260509214831 | 57 | 180 | 19.0 | 0.0 | 0.00 | 0.00 | 0.00 | 1012.2 | |
| 20260509213817 | 57 | 180 | 25.0 | 0.0 | 0.00 | 0.00 | 0.00 | 1012.1 | |
| 20260509212803 | 58 | 180 | 21.0 | 0.0 | 0.00 | 0.00 | 0.00 | 1012.5 | |
| 20260509211750 | 58 | 180 | 18.0 | 0.0 | 0.00 | 0.00 | 0.00 | 1012.6 | |
| 20260509210736 | 58 | 180 | 18.0 | 0.0 | 0.00 | 0.00 | 0.00 | 1012.6 | |
| 20260509205722 | 58 | 225 | 20.0 | 0.0 | 0.00 | 0.00 | 0.00 | 1012.7 | |
| 20260509204709 | 58 | 180 | 17.0 | 0.0 | 0.00 | 0.00 | 0.00 | 1012.9 | |
| 20260509203655 | 58 | 180 | 16.0 | 0.0 | 0.00 | 0.00 | 0.00 | 1012.8 | |
| 20260509202641 | 58 | 180 | 12.0 | 0.0 | 0.00 | 0.00 | 0.00 | 1012.8 | |
| 20260509201628 | 58 | 225 | 12.0 | 0.0 | 0.00 | 0.00 | 0.00 | 1012.7 | |
| 20260509200614 | 59 | 180 | 12.0 | 0.0 | 0.00 | 0.00 | 0.00 | 1012.6 | |
| 20260509195601 | 59 | 180 | 10.0 | 0.0 | 0.00 | 0.00 | 0.00 | 1012.5 | |
| 20260509194547 | 59 | 225 | 10.0 | 0.0 | 0.00 | 0.00 | 0.00 | 1012.5 | |
| 20260509193533 | 59 | 225 | 14.0 | 0.0 | 0.00 | 0.00 | 0.00 | 1012.2 | |
| 20260509192520 | 59 | 225 | 9.0 | 0.0 | 0.00 | 0.00 | 0.00 | 1012.3 | |
| 20260509191506 | 60 | 225 | 7.0 | 0.0 | 0.00 | 0.00 | 0.00 | 1012.4 | |
| 20260509190452 | 60 | 225 | 4.0 | 0.0 | 0.00 | 0.00 | 0.00 | 1012.4 | |
| 20260509185439 | 61 | 0.0 | 0.0 | 0.00 | 0.00 | 0.00 | 1012.4 | ||
| 20260509184425 | 61 | 315 | 2.0 | 0.0 | 0.00 | 0.00 | 0.00 | 1012.2 | |
| 20260509183412 | 61 | 270 | 3.0 | 0.0 | 0.00 | 0.00 | 0.00 | 1012.1 | |
| 20260509182358 | 61 | 0.0 | 0.0 | 0.00 | 0.00 | 0.00 | 1011.9 | ||
| 20260509181344 | 62 | 90 | 2.0 | 0.0 | 0.00 | 0.00 | 0.00 | 1011.7 | |
| 20260509180331 | 61 | 0.0 | 0.0 | 0.00 | 0.00 | 0.00 | 1011.8 | ||
| 20260509175317 | 61 | 45 | 8.0 | 0.0 | 0.00 | 0.00 | 0.00 | 1011.6 | |
| 20260509174303 | 62 | 0.0 | 0.0 | 0.00 | 0.00 | 0.00 | 1011.7 | ||
| 20260509173250 | 63 | 45 | 7.0 | 0.0 | 0.00 | 0.00 | 0.00 | 1011.5 | |
| 20260509172236 | 64 | 315 | 5.0 | 0.0 | 0.00 | 0.00 | 0.00 | 1011.3 | |
| 20260509171223 | 64 | 270 | 2.0 | 0.0 | 0.00 | 0.00 | 0.00 | 1011.2 | |
| 20260509170209 | 63 | 0.0 | 0.0 | 0.00 | 0.00 | 0.00 | 1011.2 | ||
| 20260509165155 | 62 | 45 | 5.0 | 0.0 | 0.00 | 0.00 | 0.00 | 1011.3 | |
| 20260509164142 | 62 | 45 | 10.0 | 0.0 | 0.00 | 0.00 | 0.00 | 1011.3 | |
| 20260509163128 | 62 | 45 | 4.0 | 0.0 | 0.00 | 0.00 | 0.00 | 1011.6 | |
| 20260509162114 | 61 | 0 | 5.0 | 0.0 | 0.00 | 0.00 | 0.00 | 1011.5 | |
| 20260509161101 | 61 | 45 | 9.0 | 0.0 | 0.00 | 0.00 | 0.00 | 1011.4 | |
| 20260509160047 | 60 | 45 | 16.0 | 0.0 | 0.00 | 0.00 | 0.00 | 1011.2 | |
| 20260509155034 | 63 | 0 | 4.0 | 0.0 | 0.00 | 0.00 | 0.00 | 1011.4 | |
| 20260509154020 | 64 | 0 | 9.0 | 0.0 | 0.00 | 0.00 | 0.00 | 1011.2 | |
| 20260509153006 | 67 | 45 | 4.0 | 0.0 | 0.00 | 0.00 | 0.00 | 1011.3 | |
| 20260509151953 | 67 | 0 | 7.0 | 0.0 | 0.00 | 0.00 | 0.00 | 1011.4 | |
| 20260509150939 | 68 | 0 | 3.0 | 0.0 | 0.00 | 0.00 | 0.00 | 1011.5 | |
| 20260509145925 | 70 | 0 | 6.0 | 0.0 | 0.00 | 0.00 | 0.00 | 1011.5 | |
| 20260509144912 | 77 | 0.0 | 0.0 | 0.00 | 0.00 | 0.00 | 1011.8 | ||
| 20260509143858 | 80 | 0.0 | 0.0 | 0.00 | 0.00 | 0.00 | 1011.9 | ||
| 20260509142844 | 82 | 0.0 | 0.0 | 0.00 | 0.00 | 0.00 | 1011.9 | ||
| 20260509141831 | 80 | 270 | 3.0 | 0.0 | 0.00 | 0.00 | 0.00 | 1011.9 | |
| 20260509140817 | 81 | 0.0 | 0.0 | 0.00 | 0.00 | 0.00 | 1012.0 | ||
| 20260509135803 | 79 | 180 | 6.0 | 0.0 | 0.00 | 0.00 | 0.00 | 1012.0 | |
| 20260509134750 | 77 | 0.0 | 0.0 | 0.00 | 0.00 | 0.00 | 1012.0 | ||
| 20260509133736 | 77 | 0.0 | 0.0 | 0.00 | 0.00 | 0.00 | 1012.1 | ||
| 20260509132723 | 79 | 225 | 4.0 | 0.0 | 0.00 | 0.00 | 0.00 | 1012.0 | |
| 20260509131709 | 79 | 0.0 | 0.0 | 0.00 | 0.00 | 0.00 | 1012.1 | ||
| 20260509130655 | 79 | 225 | 3.0 | 0.0 | 0.00 | 0.00 | 0.00 | 1012.1 | |
| 20260509125642 | 78 | 180 | 9.0 | 0.0 | 0.00 | 0.00 | 0.00 | 1012.0 | |
| 20260509124628 | 77 | 180 | 10.0 | 0.0 | 0.00 | 0.00 | 0.00 | 1012.1 | |
| 20260509123615 | 77 | 180 | 8.0 | 0.0 | 0.00 | 0.00 | 0.00 | 1012.2 | |
| 20260509122601 | 76 | 180 | 5.0 | 0.0 | 0.00 | 0.00 | 0.00 | 1012.3 | |
| 20260509121547 | 75 | 225 | 8.0 | 0.0 | 0.00 | 0.00 | 0.00 | 1012.5 | |
| 20260509120534 | 75 | 225 | 6.0 | 0.0 | 0.00 | 0.00 | 0.00 | 1012.8 | |
| 20260509115520 | 73 | 225 | 8.0 | 0.0 | 0.00 | 0.00 | 0.00 | 1012.8 | |
| 20260509114506 | 76 | 0.0 | 0.0 | 0.00 | 0.00 | 0.00 | 1013.0 | ||
| 20260509113453 | 76 | 225 | 7.0 | 0.0 | 0.00 | 0.00 | 0.00 | 1012.9 | |
| 20260509112439 | 78 | 270 | 2.0 | 0.0 | 0.00 | 0.00 | 0.00 | 1012.9 | |
| 20260509111425 | 76 | 225 | 2.0 | 0.0 | 0.00 | 0.00 | 0.00 | 1013.0 | |
| 20260509110412 | 76 | 225 | 5.0 | 0.0 | 0.00 | 0.00 | 0.00 | 1013.0 | |
| 20260509105358 | 75 | 225 | 2.0 | 0.0 | 0.00 | 0.00 | 0.00 | 1013.0 | |
| 20260509104345 | 76 | 0.0 | 0.0 | 0.00 | 0.00 | 0.00 | 1013.0 | ||
| 20260509103331 | 75 | 135 | 3.0 | 0.0 | 0.00 | 0.00 | 0.00 | 1012.9 | |
| 20260509102317 | 72 | 45 | 2.0 | 0.0 | 0.00 | 0.00 | 0.00 | 1012.8 | |
| 20260509101304 | 75 | 135 | 2.0 | 0.0 | 0.00 | 0.00 | 0.00 | 1012.7 | |
| 20260509100250 | 75 | 45 | 5.0 | 0.0 | 0.00 | 0.00 | 0.00 | 1012.6 | |
| 20260509095236 | 76 | 135 | 4.0 | 0.0 | 0.00 | 0.00 | 0.00 | 1012.5 | |
| 20260509094223 | 76 | 180 | 9.0 | 0.0 | 0.00 | 0.00 | 0.00 | 1012.5 | |
| 20260509093209 | 76 | 180 | 10.0 | 0.0 | 0.00 | 0.00 | 0.00 | 1012.8 | |
| 20260509092156 | 72 | 180 | 8.0 | 0.0 | 0.00 | 0.00 | 0.00 | 1012.6 | |
| 20260509091142 | 71 | 225 | 12.0 | 0.0 | 0.00 | 0.00 | 0.00 | 1012.4 | |
| 20260509090128 | 72 | 225 | 7.0 | 0.0 | 0.00 | 0.00 | 0.00 | 1012.7 | |
| 20260509085115 | 72 | 180 | 9.0 | 0.0 | 0.00 | 0.00 | 0.00 | 1012.9 | |
| 20260509084101 | 73 | 225 | 7.0 | 0.0 | 0.00 | 0.00 | 0.00 | 1013.0 | |
| 20260509083047 | 70 | 225 | 9.0 | 0.0 | 0.00 | 0.00 | 0.00 | 1013.0 | |
| 20260509082034 | 69 | 225 | 11.0 | 0.0 | 0.00 | 0.00 | 0.00 | 1013.0 |